sensor_id;sensor_type;location;lat;lon;timestamp;pressure;altitude;pressure_sealevel;temperature;humidity
76205;BME280;64986;55.672;37.628;2022-12-28T00:02:18;98905.41;;;-0.39;79.43
76205;BME280;64986;55.672;37.628;2022-12-28T00:04:44;98908.78;;;-0.39;79.72
76205;BME280;64986;55.672;37.628;2022-12-28T00:07:10;98908.94;;;-0.40;80.16
76205;BME280;64986;55.672;37.628;2022-12-28T00:09:35;98898.44;;;-0.39;79.86
76205;BME280;64986;55.672;37.628;2022-12-28T00:12:01;98903.63;;;-0.39;80.19
76205;BME280;64986;55.672;37.628;2022-12-28T00:14:27;98896.84;;;-0.40;79.45
76205;BME280;64986;55.672;37.628;2022-12-28T00:16:52;98897.63;;;-0.39;79.95
76205;BME280;64986;55.672;37.628;2022-12-28T00:19:18;98900.22;;;-0.39;79.72
76205;BME280;64986;55.672;37.628;2022-12-28T00:21:44;98898.44;;;-0.39;79.54
76205;BME280;64986;55.672;37.628;2022-12-28T00:24:23;98888.91;;;-0.38;79.91
76205;BME280;64986;55.672;37.628;2022-12-28T00:26:50;98887.47;;;-0.41;79.61
76205;BME280;64986;55.672;37.628;2022-12-28T00:29:16;98876.91;;;-0.47;79.91
76205;BME280;64986;55.672;37.628;2022-12-28T00:31:42;98876.91;;;-0.47;79.46
76205;BME280;64986;55.672;37.628;2022-12-28T00:34:08;98869.13;;;-0.47;79.66
76205;BME280;64986;55.672;37.628;2022-12-28T00:36:34;98868.16;;;-0.46;79.68
76205;BME280;64986;55.672;37.628;2022-12-28T00:39:00;98859.59;;;-0.47;79.69
76205;BME280;64986;55.672;37.628;2022-12-28T00:41:25;98855.78;;;-0.43;79.76
76205;BME280;64986;55.672;37.628;2022-12-28T00:43:51;98853.34;;;-0.44;79.54
76205;BME280;64986;55.672;37.628;2022-12-28T00:46:16;98847.16;;;-0.51;79.80
76205;BME280;64986;55.672;37.628;2022-12-28T00:48:42;98857.19;;;-0.48;79.87
76205;BME280;64986;55.672;37.628;2022-12-28T00:51:13;98855.41;;;-0.48;79.98
76205;BME280;64986;55.672;37.628;2022-12-28T00:53:39;98846.03;;;-0.49;79.78
76205;BME280;64986;55.672;37.628;2022-12-28T00:56:09;98848.19;;;-0.44;79.86
76205;BME280;64986;55.672;37.628;2022-12-28T00:58:37;98854.81;;;-0.42;79.45
76205;BME280;64986;55.672;37.628;2022-12-28T01:01:03;98849.78;;;-0.43;79.47
76205;BME280;64986;55.672;37.628;2022-12-28T01:03:30;98848.66;;;-0.41;79.47
76205;BME280;64986;55.672;37.628;2022-12-28T01:05:55;98850.28;;;-0.40;79.64
76205;BME280;64986;55.672;37.628;2022-12-28T01:08:21;98852.06;;;-0.40;79.38
76205;BME280;64986;55.672;37.628;2022-12-28T01:10:46;98855.63;;;-0.41;79.44
76205;BME280;64986;55.672;37.628;2022-12-28T01:13:12;98848.97;;;-0.44;79.41
76205;BME280;64986;55.672;37.628;2022-12-28T01:15:37;98844.91;;;-0.46;79.41
76205;BME280;64986;55.672;37.628;2022-12-28T01:18:03;98830.69;;;-0.50;79.43
76205;BME280;64986;55.672;37.628;2022-12-28T01:20:29;98835.69;;;-0.49;79.43
76205;BME280;64986;55.672;37.628;2022-12-28T01:22:54;98836.50;;;-0.48;79.40
76205;BME280;64986;55.672;37.628;2022-12-28T01:25:20;98833.75;;;-0.47;79.51
76205;BME280;64986;55.672;37.628;2022-12-28T01:27:46;98826.97;;;-0.48;79.13
76205;BME280;64986;55.672;37.628;2022-12-28T01:30:12;98827.63;;;-0.46;79.60
76205;BME280;64986;55.672;37.628;2022-12-28T01:32:38;98824.09;;;-0.45;79.66
76205;BME280;64986;55.672;37.628;2022-12-28T01:35:04;98821.50;;;-0.45;79.53
76205;BME280;64986;55.672;37.628;2022-12-28T01:37:30;98821.00;;;-0.48;79.34
76205;BME280;64986;55.672;37.628;2022-12-28T01:39:55;98819.88;;;-0.46;79.45
76205;BME280;64986;55.672;37.628;2022-12-28T01:42:21;98820.69;;;-0.45;79.27
76205;BME280;64986;55.672;37.628;2022-12-28T01:44:49;98808.59;;;-0.45;79.20
76205;BME280;64986;55.672;37.628;2022-12-28T01:47:18;98821.50;;;-0.45;79.47
76205;BME280;64986;55.672;37.628;2022-12-28T01:52:20;98811.97;;;-0.44;79.49
76205;BME280;64986;55.672;37.628;2022-12-28T01:54:54;98805.84;;;-0.43;78.98
76205;BME280;64986;55.672;37.628;2022-12-28T01:57:26;98802.59;;;-0.45;79.15
76205;BME280;64986;55.672;37.628;2022-12-28T02:00:04;98794.97;;;-0.47;79.29
76205;BME280;64986;55.672;37.628;2022-12-28T02:02:30;98805.03;;;-0.44;79.04
76205;BME280;64986;55.672;37.628;2022-12-28T02:04:57;98798.38;;;-0.46;79.07
76205;BME280;64986;55.672;37.628;2022-12-28T02:07:34;98792.41;;;-0.47;79.33
76205;BME280;64986;55.672;37.628;2022-12-28T02:10:01;98807.41;;;-0.50;79.59
76205;BME280;64986;55.672;37.628;2022-12-28T02:12:27;98790.78;;;-0.48;79.31
76205;BME280;64986;55.672;37.628;2022-12-28T02:14:53;98796.47;;;-0.44;79.30
76205;BME280;64986;55.672;37.628;2022-12-28T02:17:18;98791.09;;;-0.51;79.18
76205;BME280;64986;55.672;37.628;2022-12-28T02:19:46;98789.25;;;-0.59;79.36
76205;BME280;64986;55.672;37.628;2022-12-28T02:30:34;98796.25;;;-0.51;79.03
76205;BME280;64986;55.672;37.628;2022-12-28T02:33:18;98797.56;;;-0.47;79.17
76205;BME280;64986;55.672;37.628;2022-12-28T02:36:00;98800.16;;;-0.47;79.65
76205;BME280;64986;55.672;37.628;2022-12-28T02:39:01;98805.69;;;-0.42;79.17
76205;BME280;64986;55.672;37.628;2022-12-28T02:41:29;98800.84;;;-0.45;79.08
76205;BME280;64986;55.672;37.628;2022-12-28T02:43:57;98799.50;;;-0.49;79.10
76205;BME280;64986;55.672;37.628;2022-12-28T02:49:21;98800.47;;;-0.50;79.14
76205;BME280;64986;55.672;37.628;2022-12-28T02:55:28;98793.53;;;-0.49;79.22
76205;BME280;64986;55.672;37.628;2022-12-28T03:01:16;98788.78;;;-0.54;79.18
76205;BME280;64986;55.672;37.628;2022-12-28T03:06:24;98791.38;;;-0.54;78.97
76205;BME280;64986;55.672;37.628;2022-12-28T03:12:04;98788.94;;;-0.56;78.84
76205;BME280;64986;55.672;37.628;2022-12-28T03:14:39;98782.00;;;-0.55;79.20
76205;BME280;64986;55.672;37.628;2022-12-28T03:17:08;98789.75;;;-0.55;79.08
76205;BME280;64986;55.672;37.628;2022-12-28T03:19:56;98789.75;;;-0.55;78.86
76205;BME280;64986;55.672;37.628;2022-12-28T03:22:41;98792.19;;;-0.53;78.83
76205;BME280;64986;55.672;37.628;2022-12-28T03:25:30;98777.19;;;-0.50;78.78
76205;BME280;64986;55.672;37.628;2022-12-28T03:28:18;98782.22;;;-0.48;78.65
76205;BME280;64986;55.672;37.628;2022-12-28T03:31:09;98786.72;;;-0.50;78.89
76205;BME280;64986;55.672;37.628;2022-12-28T03:33:48;98778.75;;;-0.57;78.69
76205;BME280;64986;55.672;37.628;2022-12-28T03:41:53;98782.38;;;-0.50;78.82
76205;BME280;64986;55.672;37.628;2022-12-28T03:44:37;98784.59;;;-0.55;78.61
76205;BME280;64986;55.672;37.628;2022-12-28T03:47:10;98773.59;;;-0.57;78.81
76205;BME280;64986;55.672;37.628;2022-12-28T03:49:37;98773.91;;;-0.60;78.64
76205;BME280;64986;55.672;37.628;2022-12-28T03:52:04;98771.31;;;-0.60;78.70
76205;BME280;64986;55.672;37.628;2022-12-28T03:54:30;98771.16;;;-0.59;78.62
76205;BME280;64986;55.672;37.628;2022-12-28T03:56:56;98762.72;;;-0.61;78.98
76205;BME280;64986;55.672;37.628;2022-12-28T03:59:22;98771.81;;;-0.57;78.73
76205;BME280;64986;55.672;37.628;2022-12-28T04:01:47;98768.88;;;-0.62;78.61
76205;BME280;64986;55.672;37.628;2022-12-28T04:04:13;98767.78;;;-0.59;78.60
76205;BME280;64986;55.672;37.628;2022-12-28T04:06:38;98772.63;;;-0.56;78.61
76205;BME280;64986;55.672;37.628;2022-12-28T04:09:04;98771.97;;;-0.58;78.71
76205;BME280;64986;55.672;37.628;2022-12-28T04:11:31;98758.69;;;-0.63;78.66
76205;BME280;64986;55.672;37.628;2022-12-28T04:13:56;98768.06;;;-0.62;78.85
76205;BME280;64986;55.672;37.628;2022-12-28T04:16:22;98762.88;;;-0.62;78.96
76205;BME280;64986;55.672;37.628;2022-12-28T04:18:48;98768.88;;;-0.62;79.16
76205;BME280;64986;55.672;37.628;2022-12-28T04:21:14;98755.81;;;-0.60;78.81
76205;BME280;64986;55.672;37.628;2022-12-28T04:23:40;98755.81;;;-0.60;78.82
76205;BME280;64986;55.672;37.628;2022-12-28T04:26:09;98761.63;;;-0.58;78.73
76205;BME280;64986;55.672;37.628;2022-12-28T04:28:36;98758.53;;;-0.62;78.91
76205;BME280;64986;55.672;37.628;2022-12-28T04:31:03;98758.69;;;-0.63;78.89
76205;BME280;64986;55.672;37.628;2022-12-28T04:33:32;98750.44;;;-0.67;79.07
76205;BME280;64986;55.672;37.628;2022-12-28T04:36:04;98755.81;;;-0.60;79.37
76205;BME280;64986;55.672;37.628;2022-12-28T04:38:31;98749.00;;;-0.61;79.30
76205;BME280;64986;55.672;37.628;2022-12-28T04:40:56;98749.00;;;-0.61;79.01
76205;BME280;64986;55.672;37.628;2022-12-28T04:43:22;98759.06;;;-0.58;79.22
76205;BME280;64986;55.672;37.628;2022-12-28T04:45:55;98753.56;;;-0.55;79.16
76205;BME280;64986;55.672;37.628;2022-12-28T04:48:21;98756.97;;;-0.54;79.24
76205;BME280;64986;55.672;37.628;2022-12-28T04:50:47;98756.31;;;-0.57;78.74
76205;BME280;64986;55.672;37.628;2022-12-28T04:53:12;98753.88;;;-0.58;79.06
76205;BME280;64986;55.672;37.628;2022-12-28T04:55:38;98747.09;;;-0.59;79.09
76205;BME280;64986;55.672;37.628;2022-12-28T04:58:03;98748.72;;;-0.58;78.91
76205;BME280;64986;55.672;37.628;2022-12-28T05:00:29;98744.50;;;-0.59;78.95
76205;BME280;64986;55.672;37.628;2022-12-28T05:03:00;98741.94;;;-0.59;78.90
76205;BME280;64986;55.672;37.628;2022-12-28T05:05:27;98743.53;;;-0.58;79.20
76205;BME280;64986;55.672;37.628;2022-12-28T05:07:52;98737.41;;;-0.57;79.38
76205;BME280;64986;55.672;37.628;2022-12-28T05:10:18;98738.88;;;-0.54;79.23
76205;BME280;64986;55.672;37.628;2022-12-28T05:12:44;98747.59;;;-0.56;79.07
76205;BME280;64986;55.672;37.628;2022-12-28T05:15:09;98745.31;;;-0.59;78.94
76205;BME280;64986;55.672;37.628;2022-12-28T05:17:35;98746.94;;;-0.58;78.90
76205;BME280;64986;55.672;37.628;2022-12-28T05:20:01;98742.25;;;-0.54;79.17
76205;BME280;64986;55.672;37.628;2022-12-28T05:22:26;98752.31;;;-0.51;79.13
76205;BME280;64986;55.672;37.628;2022-12-28T05:24:52;98747.78;;;-0.49;79.03
76205;BME280;64986;55.672;37.628;2022-12-28T05:27:18;98750.06;;;-0.46;78.99
76205;BME280;64986;55.672;37.628;2022-12-28T05:29:43;98743.00;;;-0.44;79.04
76205;BME280;64986;55.672;37.628;2022-12-28T05:32:08;98744.78;;;-0.44;78.85
76205;BME280;64986;55.672;37.628;2022-12-28T05:34:34;98743.97;;;-0.45;78.64
76205;BME280;64986;55.672;37.628;2022-12-28T05:36:59;98751.56;;;-0.43;78.85
76205;BME280;64986;55.672;37.628;2022-12-28T05:39:25;98747.47;;;-0.46;78.87
76205;BME280;64986;55.672;37.628;2022-12-28T05:41:50;98752.38;;;-0.43;79.10
76205;BME280;64986;55.672;37.628;2022-12-28T05:44:16;98750.44;;;-0.41;79.09
76205;BME280;64986;55.672;37.628;2022-12-28T05:46:41;98752.03;;;-0.40;79.20
76205;BME280;64986;55.672;37.628;2022-12-28T05:49:08;98755.31;;;-0.38;79.15
76205;BME280;64986;55.672;37.628;2022-12-28T05:51:33;98756.94;;;-0.37;78.99
76205;BME280;64986;55.672;37.628;2022-12-28T05:54:00;98754.34;;;-0.37;78.84
76205;BME280;64986;55.672;37.628;2022-12-28T05:56:29;98762.75;;;-0.35;78.83
76205;BME280;64986;55.672;37.628;2022-12-28T05:58:58;98758.22;;;-0.33;78.37
76205;BME280;64986;55.672;37.628;2022-12-28T06:01:28;98752.09;;;-0.32;78.21
76205;BME280;64986;55.672;37.628;2022-12-28T06:03:57;98764.22;;;-0.32;78.67
76205;BME280;64986;55.672;37.628;2022-12-28T06:06:23;98763.56;;;-0.34;78.21
76205;BME280;64986;55.672;37.628;2022-12-28T06:08:49;98765.34;;;-0.35;78.42
76205;BME280;64986;55.672;37.628;2022-12-28T06:11:18;98760.78;;;-0.41;78.26
76205;BME280;64986;55.672;37.628;2022-12-28T06:13:43;98770.50;;;-0.35;78.44
76205;BME280;64986;55.672;37.628;2022-12-28T06:16:13;98765.28;;;-0.43;78.18
76205;BME280;64986;55.672;37.628;2022-12-28T06:18:39;98760.94;;;-0.42;78.27
76205;BME280;64986;55.672;37.628;2022-12-28T06:21:31;98773.47;;;-0.30;78.62
76205;BME280;64986;55.672;37.628;2022-12-28T06:23:58;98773.47;;;-0.30;78.50
76205;BME280;64986;55.672;37.628;2022-12-28T06:26:27;98775.88;;;-0.28;78.78
76205;BME280;64986;55.672;37.628;2022-12-28T06:28:52;98767.75;;;-0.33;78.30
76205;BME280;64986;55.672;37.628;2022-12-28T06:31:20;98774.25;;;-0.29;78.09
76205;BME280;64986;55.672;37.628;2022-12-28T06:33:47;98776.16;;;-0.31;78.32
76205;BME280;64986;55.672;37.628;2022-12-28T06:36:19;98772.16;;;-0.25;78.56
76205;BME280;64986;55.672;37.628;2022-12-28T06:38:45;98772.50;;;-0.29;78.26
76205;BME280;64986;55.672;37.628;2022-12-28T06:41:12;98772.16;;;-0.25;78.04
76205;BME280;64986;55.672;37.628;2022-12-28T06:43:39;98767.97;;;-0.26;78.36
76205;BME280;64986;55.672;37.628;2022-12-28T06:46:06;98772.81;;;-0.23;78.22
76205;BME280;64986;55.672;37.628;2022-12-28T06:48:33;98776.72;;;-0.19;78.24
76205;BME280;64986;55.672;37.628;2022-12-28T06:51:15;98776.72;;;-0.19;77.99
76205;BME280;64986;55.672;37.628;2022-12-28T06:53:42;98767.34;;;-0.20;78.04
76205;BME280;64986;55.672;37.628;2022-12-28T06:56:26;98782.25;;;-0.14;78.14
76205;BME280;64986;55.672;37.628;2022-12-28T06:58:53;98774.78;;;-0.17;77.98
76205;BME280;64986;55.672;37.628;2022-12-28T07:01:24;98771.13;;;-0.15;77.79
76205;BME280;64986;55.672;37.628;2022-12-28T07:03:51;98774.19;;;-0.11;77.85
76205;BME280;64986;55.672;37.628;2022-12-28T07:06:20;98778.59;;;-0.04;78.14
76205;BME280;64986;55.672;37.628;2022-12-28T07:08:46;98766.31;;;-0.02;78.27
76205;BME280;64986;55.672;37.628;2022-12-28T07:11:15;98773.28;;;0.06;77.93
76205;BME280;64986;55.672;37.628;2022-12-28T07:13:41;98774.63;;;0.10;77.98
76205;BME280;64986;55.672;37.628;2022-12-28T07:16:16;98777.84;;;0.12;77.72
76205;BME280;64986;55.672;37.628;2022-12-28T07:18:42;98772.50;;;0.14;76.99
76205;BME280;64986;55.672;37.628;2022-12-28T07:21:11;98774.28;;;0.13;77.18
76205;BME280;64986;55.672;37.628;2022-12-28T07:23:37;98778.38;;;0.16;77.20
76205;BME280;64986;55.672;37.628;2022-12-28T07:26:08;98784.03;;;0.19;77.37
76205;BME280;64986;55.672;37.628;2022-12-28T07:28:39;98789.72;;;0.23;77.43
76205;BME280;64986;55.672;37.628;2022-12-28T07:31:06;98782.75;;;0.23;77.03
76205;BME280;64986;55.672;37.628;2022-12-28T07:33:33;98790.84;;;0.28;77.27
76205;BME280;64986;55.672;37.628;2022-12-28T07:36:00;98780.81;;;0.25;76.97
76205;BME280;64986;55.672;37.628;2022-12-28T07:38:26;98784.38;;;0.24;76.82
76205;BME280;64986;55.672;37.628;2022-12-28T07:40:52;98782.09;;;0.21;76.62
76205;BME280;64986;55.672;37.628;2022-12-28T07:43:17;98789.16;;;0.11;76.66
76205;BME280;64986;55.672;37.628;2022-12-28T07:45:43;98778.50;;;0.14;77.07
76205;BME280;64986;55.672;37.628;2022-12-28T07:48:08;98783.88;;;0.21;77.02
76205;BME280;64986;55.672;37.628;2022-12-28T07:50:34;98787.63;;;0.26;77.14
76205;BME280;64986;55.672;37.628;2022-12-28T07:53:00;98785.84;;;0.27;77.09
76205;BME280;64986;55.672;37.628;2022-12-28T07:55:25;98781.63;;;0.26;76.84
76205;BME280;64986;55.672;37.628;2022-12-28T07:57:54;98787.63;;;0.26;76.77
76205;BME280;64986;55.672;37.628;2022-12-28T08:00:20;98780.50;;;0.28;77.12
76205;BME280;64986;55.672;37.628;2022-12-28T08:02:45;98779.22;;;0.33;77.03
76205;BME280;64986;55.672;37.628;2022-12-28T08:05:11;98778.91;;;0.36;77.26
76205;BME280;64986;55.672;37.628;2022-12-28T08:07:36;98775.06;;;0.40;77.01
76205;BME280;64986;55.672;37.628;2022-12-28T08:10:02;98773.09;;;0.42;76.92
76205;BME280;64986;55.672;37.628;2022-12-28T08:12:28;98771.00;;;0.45;76.59
76205;BME280;64986;55.672;37.628;2022-12-28T08:14:53;98765.53;;;0.48;76.79
76205;BME280;64986;55.672;37.628;2022-12-28T08:17:19;98771.34;;;0.50;76.67
76205;BME280;64986;55.672;37.628;2022-12-28T08:19:45;98774.09;;;0.49;76.39
76205;BME280;64986;55.672;37.628;2022-12-28T08:22:10;98770.53;;;0.50;76.62
76205;BME280;64986;55.672;37.628;2022-12-28T08:24:36;98778.94;;;0.44;76.54
76205;BME280;64986;55.672;37.628;2022-12-28T08:27:01;98785.41;;;0.40;75.95
76205;BME280;64986;55.672;37.628;2022-12-28T08:29:27;98775.34;;;0.37;76.24
76205;BME280;64986;55.672;37.628;2022-12-28T08:31:52;98777.63;;;0.40;76.39
76205;BME280;64986;55.672;37.628;2022-12-28T08:34:20;98766.47;;;0.39;76.48
76205;BME280;64986;55.672;37.628;2022-12-28T08:36:54;98777.00;;;0.46;76.60
76205;BME280;64986;55.672;37.628;2022-12-28T08:39:20;98768.56;;;0.44;76.43
76205;BME280;64986;55.672;37.628;2022-12-28T08:41:45;98770.53;;;0.50;76.38
76205;BME280;64986;55.672;37.628;2022-12-28T08:44:11;98778.66;;;0.55;76.49
76205;BME280;64986;55.672;37.628;2022-12-28T08:46:36;98771.03;;;0.53;76.70
76205;BME280;64986;55.672;37.628;2022-12-28T08:49:03;98778.31;;;0.58;76.33
76205;BME280;64986;55.672;37.628;2022-12-28T08:51:35;98782.41;;;0.61;76.14
76205;BME280;64986;55.672;37.628;2022-12-28T08:54:04;98765.06;;;0.53;76.42
76205;BME280;64986;55.672;37.628;2022-12-28T08:56:32;98777.22;;;0.61;76.14
76205;BME280;64986;55.672;37.628;2022-12-28T08:58:58;98778.50;;;0.65;76.47
76205;BME280;64986;55.672;37.628;2022-12-28T09:01:29;98779.00;;;0.68;76.43
76205;BME280;64986;55.672;37.628;2022-12-28T09:03:57;98783.34;;;0.68;76.50
76205;BME280;64986;55.672;37.628;2022-12-28T09:06:31;98778.16;;;0.68;76.34
76205;BME280;64986;55.672;37.628;2022-12-28T09:08:58;98779.63;;;0.62;75.89
76205;BME280;64986;55.672;37.628;2022-12-28T09:11:25;98779.16;;;0.67;76.26
76205;BME280;64986;55.672;37.628;2022-12-28T09:13:50;98780.75;;;0.68;75.91
76205;BME280;64986;55.672;37.628;2022-12-28T09:16:18;98773.00;;;0.68;75.92
76205;BME280;64986;55.672;37.628;2022-12-28T09:18:45;98777.22;;;0.69;75.70
76205;BME280;64986;55.672;37.628;2022-12-28T09:21:16;98778.03;;;0.69;75.57
76205;BME280;64986;55.672;37.628;2022-12-28T09:23:43;98778.16;;;0.68;75.78
76205;BME280;64986;55.672;37.628;2022-12-28T09:28:55;98785.47;;;0.72;75.43
76205;BME280;64986;55.672;37.628;2022-12-28T09:31:23;98789.22;;;0.70;75.65
76205;BME280;64986;55.672;37.628;2022-12-28T09:33:49;98778.66;;;0.63;75.53
76205;BME280;64986;55.672;37.628;2022-12-28T09:38:52;98784.66;;;0.72;75.47
76205;BME280;64986;55.672;37.628;2022-12-28T09:41:27;98780.31;;;0.80;75.70
76205;BME280;64986;55.672;37.628;2022-12-28T09:47:02;98780.81;;;0.84;76.02
76205;BME280;64986;55.672;37.628;2022-12-28T09:55:17;98784.19;;;0.68;76.05
76205;BME280;64986;55.672;37.628;2022-12-28T09:57:55;98779.00;;;0.68;76.24
76205;BME280;64986;55.672;37.628;2022-12-28T10:00:25;98779.31;;;0.65;76.53
76205;BME280;64986;55.672;37.628;2022-12-28T10:03:01;98775.44;;;0.61;76.37
76205;BME280;64986;55.672;37.628;2022-12-28T10:05:28;98783.22;;;0.69;76.43
76205;BME280;64986;55.672;37.628;2022-12-28T10:08:01;98784.66;;;0.72;76.54
76205;BME280;64986;55.672;37.628;2022-12-28T10:10:28;98794.03;;;0.65;76.59
76205;BME280;64986;55.672;37.628;2022-12-28T10:12:55;98786.44;;;0.63;76.63
76205;BME280;64986;55.672;37.628;2022-12-28T10:15:26;98788.69;;;0.58;76.29
76205;BME280;64986;55.672;37.628;2022-12-28T10:17:53;98790.00;;;0.62;76.80
76205;BME280;64986;55.672;37.628;2022-12-28T10:20:20;98796.78;;;0.63;76.69
76205;BME280;64986;55.672;37.628;2022-12-28T10:22:51;98797.94;;;0.69;76.61
76205;BME280;64986;55.672;37.628;2022-12-28T10:25:22;98788.22;;;0.63;76.53
76205;BME280;64986;55.672;37.628;2022-12-28T10:27:48;98797.09;;;0.60;76.54
76205;BME280;64986;55.672;37.628;2022-12-28T10:30:22;98793.97;;;0.40;76.47
76205;BME280;64986;55.672;37.628;2022-12-28T10:32:58;98801.91;;;0.39;76.55
76205;BME280;64986;55.672;37.628;2022-12-28T10:35:35;98804.47;;;0.31;76.42
76205;BME280;64986;55.672;37.628;2022-12-28T10:38:06;98802.19;;;0.36;77.14
76205;BME280;64986;55.672;37.628;2022-12-28T10:40:42;98800.59;;;0.43;76.99
76205;BME280;64986;55.672;37.628;2022-12-28T10:43:17;98810.03;;;0.60;76.98
76205;BME280;64986;55.672;37.628;2022-12-28T10:45:50;98801.47;;;0.60;77.06
76205;BME280;64986;55.672;37.628;2022-12-28T10:48:25;98805.56;;;0.70;76.85
76205;BME280;64986;55.672;37.628;2022-12-28T10:50:59;98807.81;;;0.73;77.10
76205;BME280;64986;55.672;37.628;2022-12-28T10:53:49;98811.72;;;0.77;76.83
76205;BME280;64986;55.672;37.628;2022-12-28T10:58:48;98811.88;;;0.76;77.05
76205;BME280;64986;55.672;37.628;2022-12-28T11:06:51;98810.09;;;0.76;76.62
76205;BME280;64986;55.672;37.628;2022-12-28T11:09:21;98805.25;;;0.81;76.74
76205;BME280;64986;55.672;37.628;2022-12-28T11:11:48;98803.25;;;0.59;76.51
76205;BME280;64986;55.672;37.628;2022-12-28T11:16:55;98803.34;;;0.33;76.92
76205;BME280;64986;55.672;37.628;2022-12-28T11:19:22;98805.72;;;0.26;77.58
76205;BME280;64986;55.672;37.628;2022-12-28T11:21:50;98792.78;;;0.26;77.11
76205;BME280;64986;55.672;37.628;2022-12-28T11:24:17;98807.28;;;0.11;77.64
76205;BME280;64986;55.672;37.628;2022-12-28T11:26:48;98793.28;;;0.30;76.73
76205;BME280;64986;55.672;37.628;2022-12-28T11:29:16;98795.59;;;0.07;77.06
76205;BME280;64986;55.672;37.628;2022-12-28T11:34:24;98800.50;;;0.10;77.03
76205;BME280;64986;55.672;37.628;2022-12-28T11:36:51;98798.41;;;0.22;76.88
76205;BME280;64986;55.672;37.628;2022-12-28T11:41:55;98800.94;;;0.06;76.49
76205;BME280;64986;55.672;37.628;2022-12-28T11:44:46;98794.03;;;0.14;76.49
76205;BME280;64986;55.672;37.628;2022-12-28T11:49:39;98805.66;;;0.10;76.19
76205;BME280;64986;55.672;37.628;2022-12-28T11:54:54;98804.66;;;0.03;76.53
76205;BME280;64986;55.672;37.628;2022-12-28T11:57:35;98810.63;;;0.04;76.58
76205;BME280;64986;55.672;37.628;2022-12-28T12:02:51;98809.91;;;-0.15;76.69
76205;BME280;64986;55.672;37.628;2022-12-28T12:11:27;98834.44;;;-0.19;76.80
76205;BME280;64986;55.672;37.628;2022-12-28T12:13:54;98837.22;;;-0.38;77.01
76205;BME280;64986;55.672;37.628;2022-12-28T12:16:30;98840.91;;;-0.41;77.16
76205;BME280;64986;55.672;37.628;2022-12-28T12:18:58;98839.28;;;-0.42;77.25
76205;BME280;64986;55.672;37.628;2022-12-28T12:21:43;98857.41;;;-0.16;77.01
76205;BME280;64986;55.672;37.628;2022-12-28T12:24:20;98846.56;;;-0.63;77.14
76205;BME280;64986;55.672;37.628;2022-12-28T12:27:26;98843.22;;;-0.38;76.85
76205;BME280;64986;55.672;37.628;2022-12-28T12:30:06;98854.91;;;-0.51;76.69
76205;BME280;64986;55.672;37.628;2022-12-28T12:32:51;98847.22;;;-0.61;77.64
76205;BME280;64986;55.672;37.628;2022-12-28T12:35:21;98860.06;;;-0.69;78.03
76205;BME280;64986;55.672;37.628;2022-12-28T12:37:55;98858.78;;;-0.47;77.81
76205;BME280;64986;55.672;37.628;2022-12-28T12:51:45;98889.53;;;-0.80;78.45
76205;BME280;64986;55.672;37.628;2022-12-28T12:57:24;98883.31;;;-0.69;77.48
76205;BME280;64986;55.672;37.628;2022-12-28T13:05:29;98898.91;;;-0.97;78.06
76205;BME280;64986;55.672;37.628;2022-12-28T13:07:56;98910.09;;;-1.06;78.39
76205;BME280;64986;55.672;37.628;2022-12-28T13:10:35;98900.84;;;-0.81;77.79
76205;BME280;64986;55.672;37.628;2022-12-28T13:13:03;98896.09;;;-0.86;77.58
76205;BME280;64986;55.672;37.628;2022-12-28T13:15:30;98881.00;;;-1.08;77.78
76205;BME280;64986;55.672;37.628;2022-12-28T13:18:05;98910.09;;;-1.06;78.28
76205;BME280;64986;55.672;37.628;2022-12-28T13:20:31;98903.44;;;-1.08;77.95
76205;BME280;64986;55.672;37.628;2022-12-28T13:22:57;98890.03;;;-1.12;78.23
76205;BME280;64986;55.672;37.628;2022-12-28T13:25:24;98900.88;;;-1.08;77.87
76205;BME280;64986;55.672;37.628;2022-12-28T13:27:50;98905.78;;;-1.15;78.20
76205;BME280;64986;55.672;37.628;2022-12-28T13:30:17;98908.66;;;-1.18;78.16
76205;BME280;64986;55.672;37.628;2022-12-28T13:32:50;98929.09;;;-1.25;78.62
76205;BME280;64986;55.672;37.628;2022-12-28T13:35:17;98919.59;;;-1.06;78.15
76205;BME280;64986;55.672;37.628;2022-12-28T13:38:00;98917.75;;;-1.14;77.89
76205;BME280;64986;55.672;37.628;2022-12-28T13:40:28;98914.16;;;-1.03;77.52
76205;BME280;64986;55.672;37.628;2022-12-28T13:43:44;98925.00;;;-1.00;77.39
76205;BME280;64986;55.672;37.628;2022-12-28T13:45:56;98926.84;;;-1.10;77.51
76205;BME280;64986;55.672;37.628;2022-12-28T13:48:25;98925.69;;;-1.25;77.87
76205;BME280;64986;55.672;37.628;2022-12-28T13:50:52;98933.44;;;-0.98;77.83
76205;BME280;64986;55.672;37.628;2022-12-28T13:53:24;98935.06;;;-1.24;77.82
76205;BME280;64986;55.672;37.628;2022-12-28T13:55:54;98923.25;;;-1.27;78.24
76205;BME280;64986;55.672;37.628;2022-12-28T13:58:42;98937.78;;;-1.26;77.80
76205;BME280;64986;55.672;37.628;2022-12-28T14:01:18;98937.66;;;-1.24;77.96
76205;BME280;64986;55.672;37.628;2022-12-28T14:03:46;98936.59;;;-1.31;78.17
76205;BME280;64986;55.672;37.628;2022-12-28T14:06:16;98929.19;;;-1.17;77.59
76205;BME280;64986;55.672;37.628;2022-12-28T14:08:45;98943.78;;;-1.25;78.16
76205;BME280;64986;55.672;37.628;2022-12-28T14:11:11;98949.41;;;-1.12;77.79
76205;BME280;64986;55.672;37.628;2022-12-28T14:13:37;98949.09;;;-1.36;77.87
76205;BME280;64986;55.672;37.628;2022-12-28T14:16:04;98934.56;;;-1.37;77.92
76205;BME280;64986;55.672;37.628;2022-12-28T14:18:31;98952.22;;;-1.33;77.92
76205;BME280;64986;55.672;37.628;2022-12-28T14:20:58;98946.44;;;-1.17;77.85
76205;BME280;64986;55.672;37.628;2022-12-28T14:23:33;98950.94;;;-1.19;77.72
76205;BME280;64986;55.672;37.628;2022-12-28T14:26:08;98941.47;;;-1.28;77.81
76205;BME280;64986;55.672;37.628;2022-12-28T14:28:50;98942.88;;;-1.44;78.24
76205;BME280;64986;55.672;37.628;2022-12-28T14:31:23;98944.72;;;-1.26;77.79
76205;BME280;64986;55.672;37.628;2022-12-28T14:34:00;98948.44;;;-1.38;78.02
76205;BME280;64986;55.672;37.628;2022-12-28T14:36:30;98953.09;;;-1.42;78.71
76205;BME280;64986;55.672;37.628;2022-12-28T14:38:58;98953.09;;;-1.52;78.47
76205;BME280;64986;55.672;37.628;2022-12-28T14:43:56;98956.22;;;-1.48;78.54